Terminal Aerodrome Forecast
Issued by NWS

Home | Current Version | Previous Version | Graphics & Text | Print | Product List | Glossary On
Versions: 1 2 3 4 5 6 7 8 9 10 11 12 13 14 15 16 17 18 19 20
868
FTUS43 KMPX 260456 AAB
TAFRNH
TAF AMD
KRNH 260456Z 2605/2624 14005KT 1SM BR BKN003
     FM260800 VRB03KT 1/2SM FG VV002
     FM261300 22009KT P6SM SCT200=

USA.gov is the U.S. government's official web portal to all federal, state and local government web resources and services.